sensor_id;sensor_type;location;lat;lon;timestamp;temperature;humidity
21648;DHT22;10985;54.182;7.890;2024-03-08T00:00:26;4.90;99.90
21648;DHT22;10985;54.182;7.890;2024-03-08T00:02:52;4.90;99.90
21648;DHT22;10985;54.182;7.890;2024-03-08T00:05:18;4.90;99.90
21648;DHT22;10985;54.182;7.890;2024-03-08T00:07:43;4.90;99.90
21648;DHT22;10985;54.182;7.890;2024-03-08T00:10:11;4.90;99.90
21648;DHT22;10985;54.182;7.890;2024-03-08T00:12:41;4.90;99.90
21648;DHT22;10985;54.182;7.890;2024-03-08T00:15:11;4.90;99.90
21648;DHT22;10985;54.182;7.890;2024-03-08T00:17:39;4.90;99.90
21648;DHT22;10985;54.182;7.890;2024-03-08T00:20:06;4.90;99.90
21648;DHT22;10985;54.182;7.890;2024-03-08T00:22:37;4.90;99.90
21648;DHT22;10985;54.182;7.890;2024-03-08T00:25:06;4.90;99.90
21648;DHT22;10985;54.182;7.890;2024-03-08T00:27:35;4.90;99.90
21648;DHT22;10985;54.182;7.890;2024-03-08T00:30:02;4.90;99.90
21648;DHT22;10985;54.182;7.890;2024-03-08T00:32:28;4.80;99.90
21648;DHT22;10985;54.182;7.890;2024-03-08T00:34:54;4.80;99.90
21648;DHT22;10985;54.182;7.890;2024-03-08T00:37:20;4.90;99.90
21648;DHT22;10985;54.182;7.890;2024-03-08T00:39:47;4.80;99.90
21648;DHT22;10985;54.182;7.890;2024-03-08T00:42:13;4.80;99.90
21648;DHT22;10985;54.182;7.890;2024-03-08T00:44:39;4.80;99.90
21648;DHT22;10985;54.182;7.890;2024-03-08T00:47:05;4.80;99.90
21648;DHT22;10985;54.182;7.890;2024-03-08T00:49:31;4.80;99.90
21648;DHT22;10985;54.182;7.890;2024-03-08T00:51:56;4.80;99.90
21648;DHT22;10985;54.182;7.890;2024-03-08T00:54:22;4.80;99.90
21648;DHT22;10985;54.182;7.890;2024-03-08T00:56:47;4.80;99.90
21648;DHT22;10985;54.182;7.890;2024-03-08T00:59:13;4.80;99.90
21648;DHT22;10985;54.182;7.890;2024-03-08T01:01:40;4.70;99.90
21648;DHT22;10985;54.182;7.890;2024-03-08T01:04:05;4.80;99.90
21648;DHT22;10985;54.182;7.890;2024-03-08T01:06:31;4.80;99.90
21648;DHT22;10985;54.182;7.890;2024-03-08T01:08:57;4.80;99.90
21648;DHT22;10985;54.182;7.890;2024-03-08T01:11:22;4.80;99.90
21648;DHT22;10985;54.182;7.890;2024-03-08T01:13:47;4.80;99.90
21648;DHT22;10985;54.182;7.890;2024-03-08T01:16:13;4.70;99.90
21648;DHT22;10985;54.182;7.890;2024-03-08T01:18:39;4.70;99.90
21648;DHT22;10985;54.182;7.890;2024-03-08T01:21:04;4.80;99.90
21648;DHT22;10985;54.182;7.890;2024-03-08T01:23:30;4.70;99.90
21648;DHT22;10985;54.182;7.890;2024-03-08T01:25:55;4.80;99.90
21648;DHT22;10985;54.182;7.890;2024-03-08T01:28:25;4.70;99.90
21648;DHT22;10985;54.182;7.890;2024-03-08T01:30:50;4.70;99.90
21648;DHT22;10985;54.182;7.890;2024-03-08T01:33:21;4.70;99.90
21648;DHT22;10985;54.182;7.890;2024-03-08T01:35:48;4.70;99.90
21648;DHT22;10985;54.182;7.890;2024-03-08T01:38:13;4.60;99.90
21648;DHT22;10985;54.182;7.890;2024-03-08T01:40:39;4.70;99.90
21648;DHT22;10985;54.182;7.890;2024-03-08T01:43:22;4.70;99.90
21648;DHT22;10985;54.182;7.890;2024-03-08T01:45:48;4.60;99.90
21648;DHT22;10985;54.182;7.890;2024-03-08T01:48:17;4.70;99.90
21648;DHT22;10985;54.182;7.890;2024-03-08T01:50:44;4.60;99.90
21648;DHT22;10985;54.182;7.890;2024-03-08T01:53:10;4.60;99.90
21648;DHT22;10985;54.182;7.890;2024-03-08T01:55:38;4.60;99.90
21648;DHT22;10985;54.182;7.890;2024-03-08T01:58:09;4.60;99.90
21648;DHT22;10985;54.182;7.890;2024-03-08T02:00:35;4.60;99.90
21648;DHT22;10985;54.182;7.890;2024-03-08T02:03:02;4.50;99.90
21648;DHT22;10985;54.182;7.890;2024-03-08T02:05:28;4.60;99.90
21648;DHT22;10985;54.182;7.890;2024-03-08T02:07:54;4.60;99.90
21648;DHT22;10985;54.182;7.890;2024-03-08T02:10:19;4.60;99.90
21648;DHT22;10985;54.182;7.890;2024-03-08T02:12:46;4.60;99.90
21648;DHT22;10985;54.182;7.890;2024-03-08T02:18:33;4.50;99.90
21648;DHT22;10985;54.182;7.890;2024-03-08T02:21:01;4.50;99.90
21648;DHT22;10985;54.182;7.890;2024-03-08T02:23:27;4.50;99.90
21648;DHT22;10985;54.182;7.890;2024-03-08T02:25:54;4.50;99.90
21648;DHT22;10985;54.182;7.890;2024-03-08T02:28:20;4.50;99.90
21648;DHT22;10985;54.182;7.890;2024-03-08T02:30:47;4.50;99.90
21648;DHT22;10985;54.182;7.890;2024-03-08T02:33:16;4.50;99.90
21648;DHT22;10985;54.182;7.890;2024-03-08T02:35:43;4.50;99.90
21648;DHT22;10985;54.182;7.890;2024-03-08T02:38:14;4.50;99.90
21648;DHT22;10985;54.182;7.890;2024-03-08T02:40:44;4.50;99.90
21648;DHT22;10985;54.182;7.890;2024-03-08T02:43:11;4.50;99.90
21648;DHT22;10985;54.182;7.890;2024-03-08T02:45:36;4.40;99.90
21648;DHT22;10985;54.182;7.890;2024-03-08T02:48:02;4.40;99.90
21648;DHT22;10985;54.182;7.890;2024-03-08T02:50:28;4.40;99.90
21648;DHT22;10985;54.182;7.890;2024-03-08T02:52:54;4.40;99.90
21648;DHT22;10985;54.182;7.890;2024-03-08T02:55:19;4.40;99.90
21648;DHT22;10985;54.182;7.890;2024-03-08T02:57:46;4.40;99.90
21648;DHT22;10985;54.182;7.890;2024-03-08T03:00:15;4.40;99.90
21648;DHT22;10985;54.182;7.890;2024-03-08T03:02:41;4.40;99.90
21648;DHT22;10985;54.182;7.890;2024-03-08T03:05:08;4.40;99.90
21648;DHT22;10985;54.182;7.890;2024-03-08T03:07:35;4.40;99.90
21648;DHT22;10985;54.182;7.890;2024-03-08T03:10:01;4.40;99.90
21648;DHT22;10985;54.182;7.890;2024-03-08T03:12:28;4.30;99.90
21648;DHT22;10985;54.182;7.890;2024-03-08T03:14:53;4.30;99.90
21648;DHT22;10985;54.182;7.890;2024-03-08T03:17:19;4.40;99.90
21648;DHT22;10985;54.182;7.890;2024-03-08T03:19:45;4.40;99.90
21648;DHT22;10985;54.182;7.890;2024-03-08T03:22:12;4.40;99.90
21648;DHT22;10985;54.182;7.890;2024-03-08T03:24:38;4.40;99.90
21648;DHT22;10985;54.182;7.890;2024-03-08T03:27:04;4.40;99.90
21648;DHT22;10985;54.182;7.890;2024-03-08T03:29:36;4.40;99.90
21648;DHT22;10985;54.182;7.890;2024-03-08T03:32:02;4.40;99.90
21648;DHT22;10985;54.182;7.890;2024-03-08T03:34:29;4.40;99.90
21648;DHT22;10985;54.182;7.890;2024-03-08T03:36:54;4.30;99.90
21648;DHT22;10985;54.182;7.890;2024-03-08T03:39:21;4.40;99.90
21648;DHT22;10985;54.182;7.890;2024-03-08T03:41:48;4.40;99.90
21648;DHT22;10985;54.182;7.890;2024-03-08T03:44:17;4.40;99.90
21648;DHT22;10985;54.182;7.890;2024-03-08T03:46:43;4.40;99.90
21648;DHT22;10985;54.182;7.890;2024-03-08T03:49:12;4.40;99.90
21648;DHT22;10985;54.182;7.890;2024-03-08T03:51:37;4.40;99.90
21648;DHT22;10985;54.182;7.890;2024-03-08T03:54:03;4.30;99.90
21648;DHT22;10985;54.182;7.890;2024-03-08T03:56:29;4.30;99.90
21648;DHT22;10985;54.182;7.890;2024-03-08T03:58:55;4.30;99.90
21648;DHT22;10985;54.182;7.890;2024-03-08T04:01:21;4.30;99.90
21648;DHT22;10985;54.182;7.890;2024-03-08T04:03:47;4.30;99.90
21648;DHT22;10985;54.182;7.890;2024-03-08T04:06:13;4.20;99.90
21648;DHT22;10985;54.182;7.890;2024-03-08T04:08:39;4.20;99.90
21648;DHT22;10985;54.182;7.890;2024-03-08T04:11:05;4.20;99.90
21648;DHT22;10985;54.182;7.890;2024-03-08T04:13:30;4.20;99.90
21648;DHT22;10985;54.182;7.890;2024-03-08T04:15:56;4.20;99.90
21648;DHT22;10985;54.182;7.890;2024-03-08T04:18:21;4.20;99.90
21648;DHT22;10985;54.182;7.890;2024-03-08T04:20:47;4.20;99.90
21648;DHT22;10985;54.182;7.890;2024-03-08T04:23:13;4.20;99.90
21648;DHT22;10985;54.182;7.890;2024-03-08T04:25:38;4.20;99.90
21648;DHT22;10985;54.182;7.890;2024-03-08T04:28:04;4.20;99.90
21648;DHT22;10985;54.182;7.890;2024-03-08T04:30:29;4.20;99.90
21648;DHT22;10985;54.182;7.890;2024-03-08T04:32:55;4.10;99.90
21648;DHT22;10985;54.182;7.890;2024-03-08T04:35:21;4.10;99.90
21648;DHT22;10985;54.182;7.890;2024-03-08T04:37:46;4.20;99.90
21648;DHT22;10985;54.182;7.890;2024-03-08T04:40:12;4.10;99.90
21648;DHT22;10985;54.182;7.890;2024-03-08T04:42:39;4.10;99.90
21648;DHT22;10985;54.182;7.890;2024-03-08T04:45:06;4.10;99.90
21648;DHT22;10985;54.182;7.890;2024-03-08T04:47:33;4.10;99.90
21648;DHT22;10985;54.182;7.890;2024-03-08T04:49:58;4.10;99.90
21648;DHT22;10985;54.182;7.890;2024-03-08T04:52:24;4.00;99.90
21648;DHT22;10985;54.182;7.890;2024-03-08T04:54:51;4.10;99.90
21648;DHT22;10985;54.182;7.890;2024-03-08T04:57:17;4.10;99.90
21648;DHT22;10985;54.182;7.890;2024-03-08T04:59:43;4.00;99.90
21648;DHT22;10985;54.182;7.890;2024-03-08T05:02:09;4.00;99.90
21648;DHT22;10985;54.182;7.890;2024-03-08T05:04:34;4.00;99.90
21648;DHT22;10985;54.182;7.890;2024-03-08T05:07:00;4.00;99.90
21648;DHT22;10985;54.182;7.890;2024-03-08T05:09:26;4.00;99.90
21648;DHT22;10985;54.182;7.890;2024-03-08T05:11:54;4.00;99.90
21648;DHT22;10985;54.182;7.890;2024-03-08T05:14:20;4.10;99.90
21648;DHT22;10985;54.182;7.890;2024-03-08T05:16:46;4.00;99.90
21648;DHT22;10985;54.182;7.890;2024-03-08T05:19:19;4.00;99.90
21648;DHT22;10985;54.182;7.890;2024-03-08T05:21:48;4.00;99.90
21648;DHT22;10985;54.182;7.890;2024-03-08T05:24:14;4.00;99.90
21648;DHT22;10985;54.182;7.890;2024-03-08T05:26:41;4.00;99.90
21648;DHT22;10985;54.182;7.890;2024-03-08T05:29:07;4.00;99.90
21648;DHT22;10985;54.182;7.890;2024-03-08T05:31:47;4.00;99.90
21648;DHT22;10985;54.182;7.890;2024-03-08T05:34:13;4.00;99.90
21648;DHT22;10985;54.182;7.890;2024-03-08T05:36:40;4.00;99.90
21648;DHT22;10985;54.182;7.890;2024-03-08T05:39:05;4.00;99.90
21648;DHT22;10985;54.182;7.890;2024-03-08T05:41:32;4.00;99.90
21648;DHT22;10985;54.182;7.890;2024-03-08T05:43:58;3.90;99.90
21648;DHT22;10985;54.182;7.890;2024-03-08T05:46:23;4.00;99.90
21648;DHT22;10985;54.182;7.890;2024-03-08T05:48:49;4.00;99.90
21648;DHT22;10985;54.182;7.890;2024-03-08T05:51:14;4.00;99.90
21648;DHT22;10985;54.182;7.890;2024-03-08T05:53:40;3.90;99.90
21648;DHT22;10985;54.182;7.890;2024-03-08T05:56:06;3.90;99.90
21648;DHT22;10985;54.182;7.890;2024-03-08T05:58:31;3.90;99.90
21648;DHT22;10985;54.182;7.890;2024-03-08T06:00:57;3.90;99.90
21648;DHT22;10985;54.182;7.890;2024-03-08T06:03:22;3.90;99.90
21648;DHT22;10985;54.182;7.890;2024-03-08T06:05:49;3.90;99.90
21648;DHT22;10985;54.182;7.890;2024-03-08T06:08:15;3.90;99.90
21648;DHT22;10985;54.182;7.890;2024-03-08T06:10:40;3.90;99.90
21648;DHT22;10985;54.182;7.890;2024-03-08T06:13:06;3.90;99.90
21648;DHT22;10985;54.182;7.890;2024-03-08T06:15:32;3.90;99.90
21648;DHT22;10985;54.182;7.890;2024-03-08T06:17:57;3.90;99.90
21648;DHT22;10985;54.182;7.890;2024-03-08T06:20:23;3.90;99.90
21648;DHT22;10985;54.182;7.890;2024-03-08T06:22:51;3.90;99.90
21648;DHT22;10985;54.182;7.890;2024-03-08T06:25:17;3.90;99.90
21648;DHT22;10985;54.182;7.890;2024-03-08T06:27:43;3.90;99.90
21648;DHT22;10985;54.182;7.890;2024-03-08T06:30:09;4.00;99.90
21648;DHT22;10985;54.182;7.890;2024-03-08T06:32:35;3.90;99.90
21648;DHT22;10985;54.182;7.890;2024-03-08T06:35:04;3.90;99.90
21648;DHT22;10985;54.182;7.890;2024-03-08T06:37:35;3.90;99.90
21648;DHT22;10985;54.182;7.890;2024-03-08T06:40:01;3.90;99.90
21648;DHT22;10985;54.182;7.890;2024-03-08T06:42:28;3.90;99.90
21648;DHT22;10985;54.182;7.890;2024-03-08T06:44:53;3.90;99.90
21648;DHT22;10985;54.182;7.890;2024-03-08T06:47:21;4.00;99.90
21648;DHT22;10985;54.182;7.890;2024-03-08T06:49:46;4.00;99.90
21648;DHT22;10985;54.182;7.890;2024-03-08T06:52:12;4.00;99.90
21648;DHT22;10985;54.182;7.890;2024-03-08T06:54:37;4.00;99.90
21648;DHT22;10985;54.182;7.890;2024-03-08T06:57:04;4.00;99.90
21648;DHT22;10985;54.182;7.890;2024-03-08T06:59:33;4.00;99.90
21648;DHT22;10985;54.182;7.890;2024-03-08T07:02:01;4.00;99.90
21648;DHT22;10985;54.182;7.890;2024-03-08T07:04:26;4.00;99.90
21648;DHT22;10985;54.182;7.890;2024-03-08T07:06:55;4.00;99.90
21648;DHT22;10985;54.182;7.890;2024-03-08T07:09:21;4.00;99.90
21648;DHT22;10985;54.182;7.890;2024-03-08T07:11:46;4.00;99.90
21648;DHT22;10985;54.182;7.890;2024-03-08T07:14:12;4.00;99.90
21648;DHT22;10985;54.182;7.890;2024-03-08T07:16:40;3.90;99.90
21648;DHT22;10985;54.182;7.890;2024-03-08T07:19:06;4.00;99.90
21648;DHT22;10985;54.182;7.890;2024-03-08T07:21:32;4.00;99.90
21648;DHT22;10985;54.182;7.890;2024-03-08T07:23:57;4.00;99.90
21648;DHT22;10985;54.182;7.890;2024-03-08T07:26:26;4.00;99.90
21648;DHT22;10985;54.182;7.890;2024-03-08T07:28:51;4.00;99.90
21648;DHT22;10985;54.182;7.890;2024-03-08T07:31:17;4.00;99.90
21648;DHT22;10985;54.182;7.890;2024-03-08T07:33:45;4.00;99.90
21648;DHT22;10985;54.182;7.890;2024-03-08T07:36:11;4.00;99.90
21648;DHT22;10985;54.182;7.890;2024-03-08T07:38:37;3.90;99.90
21648;DHT22;10985;54.182;7.890;2024-03-08T07:41:02;3.90;99.90
21648;DHT22;10985;54.182;7.890;2024-03-08T07:43:28;4.00;99.90
21648;DHT22;10985;54.182;7.890;2024-03-08T07:45:53;3.90;99.90
21648;DHT22;10985;54.182;7.890;2024-03-08T07:48:20;3.90;99.90
21648;DHT22;10985;54.182;7.890;2024-03-08T07:50:46;4.00;99.90
21648;DHT22;10985;54.182;7.890;2024-03-08T07:53:12;3.90;99.90
21648;DHT22;10985;54.182;7.890;2024-03-08T07:55:37;3.90;99.90
21648;DHT22;10985;54.182;7.890;2024-03-08T07:58:05;3.90;99.90
21648;DHT22;10985;54.182;7.890;2024-03-08T08:00:31;3.90;99.90
21648;DHT22;10985;54.182;7.890;2024-03-08T08:02:57;3.80;99.90
21648;DHT22;10985;54.182;7.890;2024-03-08T08:05:22;3.80;99.90
21648;DHT22;10985;54.182;7.890;2024-03-08T08:07:48;3.80;99.90
21648;DHT22;10985;54.182;7.890;2024-03-08T08:10:15;3.80;99.90
21648;DHT22;10985;54.182;7.890;2024-03-08T08:12:47;3.80;99.90
21648;DHT22;10985;54.182;7.890;2024-03-08T08:15:13;3.80;99.90
21648;DHT22;10985;54.182;7.890;2024-03-08T08:17:41;3.80;99.90
21648;DHT22;10985;54.182;7.890;2024-03-08T08:20:07;3.80;99.90
21648;DHT22;10985;54.182;7.890;2024-03-08T08:22:32;3.80;99.90
21648;DHT22;10985;54.182;7.890;2024-03-08T08:24:58;3.70;99.90
21648;DHT22;10985;54.182;7.890;2024-03-08T08:27:23;3.70;99.90
21648;DHT22;10985;54.182;7.890;2024-03-08T08:29:51;3.70;99.90
21648;DHT22;10985;54.182;7.890;2024-03-08T08:32:16;3.70;99.90
21648;DHT22;10985;54.182;7.890;2024-03-08T08:34:44;3.70;99.90
21648;DHT22;10985;54.182;7.890;2024-03-08T08:37:09;3.80;99.90
21648;DHT22;10985;54.182;7.890;2024-03-08T08:39:35;3.80;99.90
21648;DHT22;10985;54.182;7.890;2024-03-08T08:42:00;3.80;99.90
21648;DHT22;10985;54.182;7.890;2024-03-08T08:44:28;3.90;99.90
21648;DHT22;10985;54.182;7.890;2024-03-08T08:46:53;3.80;99.90
21648;DHT22;10985;54.182;7.890;2024-03-08T08:49:19;3.90;99.90
21648;DHT22;10985;54.182;7.890;2024-03-08T08:51:52;3.90;99.90
21648;DHT22;10985;54.182;7.890;2024-03-08T08:54:18;3.90;99.90
21648;DHT22;10985;54.182;7.890;2024-03-08T08:56:44;3.90;99.90
21648;DHT22;10985;54.182;7.890;2024-03-08T08:59:10;3.90;99.90
21648;DHT22;10985;54.182;7.890;2024-03-08T09:01:39;4.00;99.90
21648;DHT22;10985;54.182;7.890;2024-03-08T09:04:04;4.00;99.90
21648;DHT22;10985;54.182;7.890;2024-03-08T09:06:31;4.00;99.90
21648;DHT22;10985;54.182;7.890;2024-03-08T09:08:57;4.10;99.90
21648;DHT22;10985;54.182;7.890;2024-03-08T09:11:23;4.10;99.90
21648;DHT22;10985;54.182;7.890;2024-03-08T09:13:50;4.20;99.90
21648;DHT22;10985;54.182;7.890;2024-03-08T09:16:16;4.20;99.90
21648;DHT22;10985;54.182;7.890;2024-03-08T09:18:41;4.30;99.90
21648;DHT22;10985;54.182;7.890;2024-03-08T09:21:07;4.30;99.90
21648;DHT22;10985;54.182;7.890;2024-03-08T09:23:38;4.30;99.90
21648;DHT22;10985;54.182;7.890;2024-03-08T09:26:03;4.40;99.90
21648;DHT22;10985;54.182;7.890;2024-03-08T09:28:29;4.40;99.90
21648;DHT22;10985;54.182;7.890;2024-03-08T09:30:55;4.40;99.90
21648;DHT22;10985;54.182;7.890;2024-03-08T09:33:20;4.40;99.90
21648;DHT22;10985;54.182;7.890;2024-03-08T09:35:47;4.40;99.90
21648;DHT22;10985;54.182;7.890;2024-03-08T09:38:13;4.50;99.90
21648;DHT22;10985;54.182;7.890;2024-03-08T09:40:43;4.50;99.90
21648;DHT22;10985;54.182;7.890;2024-03-08T09:43:09;4.60;99.90
21648;DHT22;10985;54.182;7.890;2024-03-08T09:45:37;4.60;99.90
21648;DHT22;10985;54.182;7.890;2024-03-08T09:48:12;4.70;99.90
21648;DHT22;10985;54.182;7.890;2024-03-08T09:50:42;4.70;99.90
21648;DHT22;10985;54.182;7.890;2024-03-08T09:53:08;4.80;99.90
21648;DHT22;10985;54.182;7.890;2024-03-08T09:55:36;4.90;99.90
21648;DHT22;10985;54.182;7.890;2024-03-08T09:58:05;5.00;99.90
21648;DHT22;10985;54.182;7.890;2024-03-08T10:00:49;5.10;99.90
21648;DHT22;10985;54.182;7.890;2024-03-08T10:03:15;5.20;99.90
21648;DHT22;10985;54.182;7.890;2024-03-08T10:05:41;5.30;99.90
21648;DHT22;10985;54.182;7.890;2024-03-08T10:08:07;5.50;99.90
21648;DHT22;10985;54.182;7.890;2024-03-08T10:10:39;5.70;99.90
21648;DHT22;10985;54.182;7.890;2024-03-08T10:13:09;6.00;99.90
21648;DHT22;10985;54.182;7.890;2024-03-08T10:15:36;6.40;99.90
21648;DHT22;10985;54.182;7.890;2024-03-08T10:18:01;6.70;99.90
21648;DHT22;10985;54.182;7.890;2024-03-08T10:20:29;7.00;99.90
21648;DHT22;10985;54.182;7.890;2024-03-08T10:23:01;7.30;99.90
21648;DHT22;10985;54.182;7.890;2024-03-08T10:25:29;7.60;99.90
21648;DHT22;10985;54.182;7.890;2024-03-08T10:27:55;7.70;99.90
21648;DHT22;10985;54.182;7.890;2024-03-08T10:30:21;7.90;99.90
21648;DHT22;10985;54.182;7.890;2024-03-08T10:32:47;8.10;99.90
21648;DHT22;10985;54.182;7.890;2024-03-08T10:35:13;8.20;99.90
21648;DHT22;10985;54.182;7.890;2024-03-08T10:37:47;8.50;99.90
21648;DHT22;10985;54.182;7.890;2024-03-08T10:40:16;8.60;99.90
21648;DHT22;10985;54.182;7.890;2024-03-08T10:43:22;8.90;99.90
21648;DHT22;10985;54.182;7.890;2024-03-08T10:45:50;9.10;99.90
21648;DHT22;10985;54.182;7.890;2024-03-08T10:48:31;9.10;99.90
21648;DHT22;10985;54.182;7.890;2024-03-08T10:51:02;9.40;99.90
21648;DHT22;10985;54.182;7.890;2024-03-08T10:53:28;9.60;99.90
21648;DHT22;10985;54.182;7.890;2024-03-08T10:55:56;9.80;99.90
21648;DHT22;10985;54.182;7.890;2024-03-08T10:58:24;10.20;99.90
21648;DHT22;10985;54.182;7.890;2024-03-08T11:00:54;10.30;99.90
21648;DHT22;10985;54.182;7.890;2024-03-08T11:06:06;10.70;99.90
21648;DHT22;10985;54.182;7.890;2024-03-08T11:08:33;10.80;99.90
21648;DHT22;10985;54.182;7.890;2024-03-08T11:11:00;10.70;99.90
21648;DHT22;10985;54.182;7.890;2024-03-08T11:13:36;10.80;99.90
21648;DHT22;10985;54.182;7.890;2024-03-08T11:16:07;11.20;99.90
21648;DHT22;10985;54.182;7.890;2024-03-08T11:18:35;11.40;99.90
21648;DHT22;10985;54.182;7.890;2024-03-08T11:21:06;11.70;99.90
21648;DHT22;10985;54.182;7.890;2024-03-08T11:23:37;11.80;99.90
21648;DHT22;10985;54.182;7.890;2024-03-08T11:26:03;11.80;99.90
21648;DHT22;10985;54.182;7.890;2024-03-08T11:28:33;12.20;99.90
21648;DHT22;10985;54.182;7.890;2024-03-08T11:33:31;12.20;99.90
21648;DHT22;10985;54.182;7.890;2024-03-08T11:36:12;12.10;99.90
21648;DHT22;10985;54.182;7.890;2024-03-08T11:38:42;12.30;99.90
21648;DHT22;10985;54.182;7.890;2024-03-08T11:41:09;12.60;99.90
21648;DHT22;10985;54.182;7.890;2024-03-08T11:43:42;12.60;99.90
21648;DHT22;10985;54.182;7.890;2024-03-08T11:46:08;12.80;99.90
21648;DHT22;10985;54.182;7.890;2024-03-08T11:48:34;12.80;99.90
21648;DHT22;10985;54.182;7.890;2024-03-08T11:51:01;12.70;99.90
21648;DHT22;10985;54.182;7.890;2024-03-08T11:53:27;13.00;99.90
21648;DHT22;10985;54.182;7.890;2024-03-08T11:55:52;13.20;99.90
21648;DHT22;10985;54.182;7.890;2024-03-08T11:58:18;13.40;99.90
21648;DHT22;10985;54.182;7.890;2024-03-08T12:00:43;13.20;99.90
21648;DHT22;10985;54.182;7.890;2024-03-08T12:03:11;13.10;99.90
21648;DHT22;10985;54.182;7.890;2024-03-08T12:05:37;13.30;99.90
21648;DHT22;10985;54.182;7.890;2024-03-08T12:08:03;13.70;99.90
21648;DHT22;10985;54.182;7.890;2024-03-08T12:10:32;14.10;99.90
21648;DHT22;10985;54.182;7.890;2024-03-08T12:12:58;14.30;99.90
21648;DHT22;10985;54.182;7.890;2024-03-08T12:15:29;14.50;99.90
21648;DHT22;10985;54.182;7.890;2024-03-08T12:17:55;14.60;99.90
21648;DHT22;10985;54.182;7.890;2024-03-08T12:20:23;14.60;99.90
21648;DHT22;10985;54.182;7.890;2024-03-08T12:22:49;14.80;99.90
21648;DHT22;10985;54.182;7.890;2024-03-08T12:25:17;15.20;99.90
21648;DHT22;10985;54.182;7.890;2024-03-08T12:27:43;15.40;99.90
21648;DHT22;10985;54.182;7.890;2024-03-08T12:30:26;15.70;99.90
21648;DHT22;10985;54.182;7.890;2024-03-08T12:32:56;15.90;99.90
21648;DHT22;10985;54.182;7.890;2024-03-08T12:35:23;15.90;99.90
21648;DHT22;10985;54.182;7.890;2024-03-08T12:37:52;16.00;99.90
21648;DHT22;10985;54.182;7.890;2024-03-08T12:40:19;16.10;99.90
21648;DHT22;10985;54.182;7.890;2024-03-08T12:42:47;16.30;99.90
21648;DHT22;10985;54.182;7.890;2024-03-08T12:45:14;16.40;99.90
21648;DHT22;10985;54.182;7.890;2024-03-08T12:47:39;16.70;99.90
21648;DHT22;10985;54.182;7.890;2024-03-08T12:50:08;16.60;99.90
21648;DHT22;10985;54.182;7.890;2024-03-08T12:52:34;16.70;99.90
21648;DHT22;10985;54.182;7.890;2024-03-08T12:55:00;16.60;99.90
21648;DHT22;10985;54.182;7.890;2024-03-08T12:57:32;16.70;99.90
21648;DHT22;10985;54.182;7.890;2024-03-08T12:59:59;16.50;99.90
21648;DHT22;10985;54.182;7.890;2024-03-08T13:02:25;16.60;99.90
21648;DHT22;10985;54.182;7.890;2024-03-08T13:04:51;16.70;99.90
21648;DHT22;10985;54.182;7.890;2024-03-08T13:07:23;16.80;99.90
21648;DHT22;10985;54.182;7.890;2024-03-08T13:09:53;16.80;99.90
21648;DHT22;10985;54.182;7.890;2024-03-08T13:12:25;16.80;99.90
21648;DHT22;10985;54.182;7.890;2024-03-08T13:14:51;16.80;99.90
21648;DHT22;10985;54.182;7.890;2024-03-08T13:17:17;16.70;99.90
21648;DHT22;10985;54.182;7.890;2024-03-08T13:19:44;16.50;99.90
21648;DHT22;10985;54.182;7.890;2024-03-08T13:22:09;16.50;99.90
21648;DHT22;10985;54.182;7.890;2024-03-08T13:24:47;16.20;99.90
21648;DHT22;10985;54.182;7.890;2024-03-08T13:27:13;16.10;99.90
21648;DHT22;10985;54.182;7.890;2024-03-08T13:29:45;15.90;99.90
21648;DHT22;10985;54.182;7.890;2024-03-08T13:32:12;15.80;99.90
21648;DHT22;10985;54.182;7.890;2024-03-08T13:34:41;15.50;99.90
21648;DHT22;10985;54.182;7.890;2024-03-08T13:37:06;15.50;99.90
21648;DHT22;10985;54.182;7.890;2024-03-08T13:39:32;15.40;99.90
21648;DHT22;10985;54.182;7.890;2024-03-08T13:42:10;15.30;99.90
21648;DHT22;10985;54.182;7.890;2024-03-08T13:44:38;15.20;99.90
21648;DHT22;10985;54.182;7.890;2024-03-08T13:47:04;15.30;99.90
21648;DHT22;10985;54.182;7.890;2024-03-08T13:49:30;15.00;99.90
21648;DHT22;10985;54.182;7.890;2024-03-08T13:51:56;15.00;99.90
21648;DHT22;10985;54.182;7.890;2024-03-08T13:54:24;14.90;99.90
21648;DHT22;10985;54.182;7.890;2024-03-08T13:56:50;15.00;99.90
21648;DHT22;10985;54.182;7.890;2024-03-08T13:59:17;14.90;99.90
21648;DHT22;10985;54.182;7.890;2024-03-08T14:01:43;15.00;99.90
21648;DHT22;10985;54.182;7.890;2024-03-08T14:04:09;14.80;99.90
21648;DHT22;10985;54.182;7.890;2024-03-08T14:06:35;14.40;99.90
21648;DHT22;10985;54.182;7.890;2024-03-08T14:09:00;14.20;99.90
21648;DHT22;10985;54.182;7.890;2024-03-08T14:11:27;13.70;99.90
21648;DHT22;10985;54.182;7.890;2024-03-08T14:13:53;13.30;99.90
21648;DHT22;10985;54.182;7.890;2024-03-08T14:16:19;12.80;99.90
21648;DHT22;10985;54.182;7.890;2024-03-08T14:18:44;12.40;99.90
21648;DHT22;10985;54.182;7.890;2024-03-08T14:21:10;12.10;99.90
21648;DHT22;10985;54.182;7.890;2024-03-08T14:23:36;11.80;99.90
21648;DHT22;10985;54.182;7.890;2024-03-08T14:26:04;11.40;99.90
21648;DHT22;10985;54.182;7.890;2024-03-08T14:28:32;11.10;99.90
21648;DHT22;10985;54.182;7.890;2024-03-08T14:30:58;10.80;99.90
21648;DHT22;10985;54.182;7.890;2024-03-08T14:33:23;10.50;99.90
21648;DHT22;10985;54.182;7.890;2024-03-08T14:35:50;10.30;99.90
21648;DHT22;10985;54.182;7.890;2024-03-08T14:38:16;10.20;99.90
21648;DHT22;10985;54.182;7.890;2024-03-08T14:40:43;10.00;99.90
21648;DHT22;10985;54.182;7.890;2024-03-08T14:43:12;9.80;99.90
21648;DHT22;10985;54.182;7.890;2024-03-08T14:45:38;9.70;99.90
21648;DHT22;10985;54.182;7.890;2024-03-08T14:48:04;9.40;99.90
21648;DHT22;10985;54.182;7.890;2024-03-08T14:50:30;9.30;99.90
21648;DHT22;10985;54.182;7.890;2024-03-08T14:52:57;9.30;99.90
21648;DHT22;10985;54.182;7.890;2024-03-08T14:55:23;9.10;99.90
21648;DHT22;10985;54.182;7.890;2024-03-08T14:57:49;9.10;99.90
21648;DHT22;10985;54.182;7.890;2024-03-08T15:00:19;9.00;99.90
21648;DHT22;10985;54.182;7.890;2024-03-08T15:03:01;8.90;99.90
21648;DHT22;10985;54.182;7.890;2024-03-08T15:05:27;8.80;99.90
21648;DHT22;10985;54.182;7.890;2024-03-08T15:07:54;8.80;99.90
21648;DHT22;10985;54.182;7.890;2024-03-08T15:10:20;8.70;99.90
21648;DHT22;10985;54.182;7.890;2024-03-08T15:12:48;8.70;99.90
21648;DHT22;10985;54.182;7.890;2024-03-08T15:15:14;8.60;99.90
21648;DHT22;10985;54.182;7.890;2024-03-08T15:17:44;8.60;99.90
21648;DHT22;10985;54.182;7.890;2024-03-08T15:20:12;8.60;99.90
21648;DHT22;10985;54.182;7.890;2024-03-08T15:22:50;8.50;99.90
21648;DHT22;10985;54.182;7.890;2024-03-08T15:25:17;8.50;99.90
21648;DHT22;10985;54.182;7.890;2024-03-08T15:27:49;8.50;99.90
21648;DHT22;10985;54.182;7.890;2024-03-08T15:30:14;8.50;99.90
21648;DHT22;10985;54.182;7.890;2024-03-08T15:32:45;8.50;99.90
21648;DHT22;10985;54.182;7.890;2024-03-08T15:35:13;8.40;99.90
21648;DHT22;10985;54.182;7.890;2024-03-08T15:37:40;8.40;99.90
21648;DHT22;10985;54.182;7.890;2024-03-08T15:40:11;8.30;99.90
21648;DHT22;10985;54.182;7.890;2024-03-08T15:42:58;8.30;99.90
21648;DHT22;10985;54.182;7.890;2024-03-08T15:45:25;8.20;99.90
21648;DHT22;10985;54.182;7.890;2024-03-08T15:47:54;8.20;99.90
21648;DHT22;10985;54.182;7.890;2024-03-08T15:50:20;8.20;99.90